Time;durP1;ratioP1;P1;durP2;ratioP2;P2;SDS_P1;SDS_P2;PMS_P1;PMS_P2;Temp;Humidity;BMP_temperature;BMP_pressure;BME280_temperature;BME280_humidity;BME280_pressure;Samples;Min_cycle;Max_cycle;Signal;HPM_P1;HPM_P2
2021/11/03 00:00:26;;;;;;;11.13;5.80;;;;;;;5.91;85.40;99712.63;5037100;28;20448;-61
2021/11/03 00:02:51;;;;;;;6.88;5.57;;;;;;;5.84;85.61;99708.56;5037139;28;20116;-61
2021/11/03 00:05:17;;;;;;;8.95;6.53;;;;;;;5.79;85.91;99711.72;5036851;28;20022;-61
2021/11/03 00:07:44;;;;;;;8.23;6.20;;;;;;;5.74;86.04;99712.06;5036757;28;20044;-61
2021/11/03 00:10:12;;;;;;;7.63;5.97;;;;;;;5.67;86.04;99714.78;5037139;28;20048;-61
2021/11/03 00:12:38;;;;;;;8.35;6.00;;;;;;;5.59;85.90;99727.88;5036224;28;20025;-61
2021/11/03 00:15:05;;;;;;;9.80;6.50;;;;;;;5.49;85.76;99727.81;5037040;28;20041;-60
2021/11/03 00:17:30;;;;;;;8.32;6.05;;;;;;;5.35;85.21;99725.66;5036575;28;20031;-61
2021/11/03 00:19:55;;;;;;;6.72;5.22;;;;;;;5.26;85.58;99723.22;5036498;28;20029;-61
2021/11/03 00:22:21;;;;;;;7.35;5.38;;;;;;;5.18;85.85;99731.84;5036497;28;20045;-61
2021/11/03 00:24:47;;;;;;;7.25;5.90;;;;;;;5.12;86.26;99739.75;5036940;28;20029;-61
2021/11/03 00:27:13;;;;;;;12.32;5.70;;;;;;;5.07;86.68;99737.31;5036044;28;20071;-61
2021/11/03 00:29:38;;;;;;;6.80;5.82;;;;;;;5.03;87.14;99739.28;5035910;28;20071;-61
2021/11/03 00:32:06;;;;;;;7.32;6.07;;;;;;;4.97;86.69;99743.59;5035869;28;20049;-60
2021/11/03 00:34:32;;;;;;;7.47;4.50;;;;;;;4.91;86.41;99743.09;5036097;28;20045;-61
2021/11/03 00:36:57;;;;;;;6.38;5.10;;;;;;;4.87;86.70;99741.47;5036149;28;20064;-61
2021/11/03 00:39:24;;;;;;;8.18;5.43;;;;;;;4.83;86.12;99743.41;5036226;28;20049;-60
2021/11/03 00:41:49;;;;;;;7.80;5.82;;;;;;;4.78;86.27;99746.53;5036113;28;20043;-61
2021/11/03 00:44:15;;;;;;;9.02;6.85;;;;;;;4.76;86.56;99749.69;5036012;28;20482;-60
2021/11/03 00:46:41;;;;;;;9.60;6.90;;;;;;;4.74;86.96;99749.28;5036063;28;20021;-61
2021/11/03 00:49:06;;;;;;;9.05;6.68;;;;;;;4.70;86.44;99747.63;5035935;28;20140;-61
2021/11/03 00:51:32;;;;;;;10.45;7.70;;;;;;;4.65;85.89;99743.97;5035892;28;20018;-61
2021/11/03 00:53:58;;;;;;;9.82;6.63;;;;;;;4.56;85.86;99743.47;5035361;28;20033;-61
2021/11/03 00:56:23;;;;;;;10.98;7.60;;;;;;;4.53;86.24;99747.03;5036108;28;20037;-60
2021/11/03 00:58:48;;;;;;;10.05;7.57;;;;;;;4.52;86.91;99772.44;5035742;28;20108;-61
2021/11/03 01:01:14;;;;;;;14.75;9.07;;;;;;;4.56;87.37;99784.41;5035761;28;20025;-61
2021/11/03 01:03:39;;;;;;;15.65;9.02;;;;;;;4.59;87.65;99780.88;5035901;28;20032;-61
2021/11/03 01:06:05;;;;;;;13.30;9.23;;;;;;;4.62;87.38;99780.94;5035838;28;20025;-60
2021/11/03 01:08:32;;;;;;;13.55;8.82;;;;;;;4.72;87.77;99787.03;5035692;28;20044;-61
2021/11/03 01:10:57;;;;;;;11.60;8.88;;;;;;;4.80;87.68;99788.72;5035485;28;20029;-60
2021/11/03 01:13:24;;;;;;;11.85;8.38;;;;;;;4.83;87.41;99787.97;5035744;28;20025;-61
2021/11/03 01:15:50;;;;;;;11.40;8.20;;;;;;;4.84;87.29;99790.38;5035532;28;20048;-60
2021/11/03 01:18:16;;;;;;;11.30;8.10;;;;;;;4.84;87.15;99790.38;5035521;28;20032;-60
2021/11/03 01:20:43;;;;;;;9.85;7.30;;;;;;;4.83;87.20;99793.53;5035783;28;20029;-60
2021/11/03 01:23:09;;;;;;;11.35;8.77;;;;;;;4.75;86.44;99784.28;5035550;28;20051;-60
2021/11/03 01:25:35;;;;;;;15.20;8.18;;;;;;;4.61;86.07;99787.66;5035484;28;20126;-60
2021/11/03 01:28:02;;;;;;;9.82;6.93;;;;;;;4.54;86.43;99787.59;5035591;28;20044;-61
2021/11/03 01:30:27;;;;;;;11.98;7.60;;;;;;;4.51;87.16;99782.78;5033553;28;20439;-60
2021/11/03 01:32:55;;;;;;;10.00;7.35;;;;;;;4.49;87.65;99787.13;5035638;28;20025;-61
2021/11/03 01:35:22;;;;;;;14.55;8.68;;;;;;;4.45;87.33;99778.72;5033596;28;20021;-60
2021/11/03 01:37:48;;;;;;;8.77;6.60;;;;;;;4.37;87.34;99778.97;5035267;28;20317;-60
2021/11/03 01:40:16;;;;;;;12.32;7.72;;;;;;;4.32;86.90;99775.34;5035198;28;20473;-61
2021/11/03 01:42:42;;;;;;;6.93;6.05;;;;;;;4.30;86.94;99785.25;5035231;28;20302;-61
2021/11/03 01:45:10;;;;;;;13.25;6.55;;;;;;;4.24;87.30;99783.97;5035064;28;20449;-60
2021/11/03 01:47:44;;;;;;;12.55;8.00;;;;;;;4.20;87.17;99783.13;5035123;28;20103;-60
2021/11/03 01:50:28;;;;;;;10.63;7.55;;;;;;;4.16;87.68;99787.84;5035130;28;20021;-61
2021/11/03 01:53:00;;;;;;;10.65;7.82;;;;;;;4.16;87.72;99804.53;5035275;28;20024;-60
2021/11/03 01:55:27;;;;;;;9.25;7.82;;;;;;;4.15;88.07;99808.47;5034917;28;20033;-61
2021/11/03 01:57:58;;;;;;;11.02;7.55;;;;;;;4.19;88.39;99806.56;5035209;28;20025;-60
2021/11/03 02:00:28;;;;;;;10.65;7.55;;;;;;;4.17;88.15;99817.25;5034833;28;20417;-60
2021/11/03 02:03:01;;;;;;;10.77;7.63;;;;;;;4.18;88.10;99813.28;5035310;28;20409;-60
2021/11/03 02:05:27;;;;;;;11.70;9.05;;;;;;;4.21;88.32;99815.31;5036863;28;20150;-60
2021/11/03 02:07:54;;;;;;;20.40;12.90;;;;;;;4.18;87.59;99813.28;5039188;28;20127;-60
2021/11/03 02:10:21;;;;;;;21.30;14.55;;;;;;;4.14;87.79;99810.47;5021247;28;20021;-60
2021/11/03 02:12:46;;;;;;;23.83;15.52;;;;;;;4.13;87.78;99821.97;5038922;28;20416;-60
2021/11/03 02:15:14;;;;;;;11.60;9.00;;;;;;;4.08;87.54;99811.13;5039059;28;20036;-60
2021/11/03 02:17:40;;;;;;;13.63;7.97;;;;;;;4.04;87.61;99814.66;5038786;28;20029;-59
2021/11/03 02:20:11;;;;;;;10.73;7.75;;;;;;;3.97;87.32;99809.00;5037934;28;20087;-60
2021/11/03 02:23:06;;;;;;;18.02;9.77;;;;;;;3.93;87.83;99816.47;5038254;28;20043;-60
2021/11/03 02:25:38;;;;;;;10.35;7.15;;;;;;;3.88;88.08;99816.78;5038854;28;20030;-61
2021/11/03 02:28:05;;;;;;;;;;;;;;;3.88;87.85;99811.22;5039163;28;20030;-60
2021/11/03 02:30:31;;;;;;;8.50;6.63;;;;;;;3.83;87.94;99808.75;5038508;28;19913;-61
2021/11/03 02:33:00;;;;;;;8.77;6.38;;;;;;;3.85;88.52;99811.97;5038661;28;20028;-60
2021/11/03 02:35:25;;;;;;;8.50;6.15;;;;;;;3.83;88.54;99807.94;5038548;28;20033;-60
2021/11/03 02:37:53;;;;;;;9.07;7.00;;;;;;;3.82;88.33;99809.09;5038241;28;20148;-60
2021/11/03 02:40:37;;;;;;;7.22;6.18;;;;;;;3.82;88.62;99807.13;5038652;28;20432;-60
2021/11/03 02:43:14;;;;;;;13.05;7.32;;;;;;;3.83;88.79;99808.75;5038149;28;20428;-60
2021/11/03 02:45:53;;;;;;;10.35;6.95;;;;;;;3.81;88.56;99801.94;5038450;28;20056;-60
2021/11/03 02:48:19;;;;;;;8.35;6.28;;;;;;;3.80;88.21;99801.13;5038047;28;20429;-61
2021/11/03 02:50:56;;;;;;;10.38;7.00;;;;;;;3.75;87.71;99790.34;5038272;28;20045;-60
2021/11/03 02:53:22;;;;;;;8.68;6.18;;;;;;;3.68;86.98;99790.22;5038053;28;20428;-60
2021/11/03 02:55:47;;;;;;;11.02;6.07;;;;;;;3.61;87.15;99799.25;5038249;28;20025;-60
2021/11/03 02:58:13;;;;;;;7.57;6.30;;;;;;;3.54;87.49;99807.44;5038088;28;20110;-60
2021/11/03 03:00:38;;;;;;;6.50;5.70;;;;;;;3.47;87.36;99814.84;5038129;28;20049;-60
2021/11/03 03:03:04;;;;;;;12.63;6.60;;;;;;;3.43;88.01;99812.00;5038215;28;20116;-60
2021/11/03 03:05:29;;;;;;;10.68;6.70;;;;;;;3.46;88.75;99816.03;5036895;28;20021;-60
2021/11/03 03:07:55;;;;;;;10.70;7.57;;;;;;;3.48;89.13;99820.03;5037967;28;20026;-60
2021/11/03 03:10:20;;;;;;;9.35;6.78;;;;;;;3.53;89.82;99816.16;5037826;28;20309;-61
2021/11/03 03:12:45;;;;;;;7.78;6.97;;;;;;;3.59;89.80;99825.81;5037933;28;20445;-60
2021/11/03 03:15:11;;;;;;;11.30;7.60;;;;;;;3.66;89.75;99825.94;5037365;28;20021;-60
2021/11/03 03:17:36;;;;;;;8.90;7.10;;;;;;;3.69;89.97;99823.22;5037585;28;20432;-61
2021/11/03 03:20:04;;;;;;;12.38;8.40;;;;;;;3.77;89.83;99826.91;5037816;28;20070;-60
2021/11/03 03:22:29;;;;;;;11.00;8.10;;;;;;;3.80;89.61;99819.81;5037254;28;20022;-61
2021/11/03 03:24:54;;;;;;;13.75;7.25;;;;;;;3.86;89.71;99823.91;5037933;28;20048;-60
2021/11/03 03:27:20;;;;;;;13.60;8.20;;;;;;;3.90;89.74;99825.56;5037426;28;20022;-60
2021/11/03 03:29:45;;;;;;;14.70;8.95;;;;;;;3.94;89.50;99831.19;5036566;28;20037;-61
2021/11/03 03:32:11;;;;;;;9.85;8.75;;;;;;;3.98;89.35;99832.84;5037533;28;20059;-61
2021/11/03 03:34:36;;;;;;;10.63;8.00;;;;;;;3.98;89.48;99832.84;5037319;28;20025;-61
2021/11/03 03:37:03;;;;;;;10.50;8.38;;;;;;;4.02;89.51;99836.47;5037610;28;20022;-61
2021/11/03 03:39:28;;;;;;;12.88;9.85;;;;;;;3.98;89.24;99832.84;5036148;28;20025;-60
2021/11/03 03:42:00;;;;;;;16.08;11.32;;;;;;;3.97;89.48;99836.00;5037326;28;20029;-60
2021/11/03 03:44:26;;;;;;;11.75;9.55;;;;;;;3.94;89.19;99833.97;5019629;28;20071;-58
2021/11/03 03:46:52;;;;;;;14.32;9.82;;;;;;;3.93;89.57;99841.50;5037206;28;20349;-60
2021/11/03 03:49:18;;;;;;;13.20;9.40;;;;;;;3.93;89.90;99843.47;5037032;28;20045;-60
2021/11/03 03:51:44;;;;;;;11.15;8.65;;;;;;;3.92;90.33;99851.00;5036867;28;20030;-60
2021/11/03 03:54:10;;;;;;;11.43;8.60;;;;;;;3.94;89.95;99845.88;5037288;28;20740;-60
2021/11/03 03:56:35;;;;;;;11.35;8.95;;;;;;;3.95;89.90;99844.72;5036947;28;20033;-61
2021/11/03 03:59:00;;;;;;;11.65;8.98;;;;;;;4.00;90.04;99844.38;5037006;28;20025;-60
2021/11/03 04:01:27;;;;;;;44.67;38.00;;;;;;;4.03;89.74;99852.00;5036824;28;20025;-61
2021/11/03 04:03:53;;;;;;;37.03;33.20;;;;;;;4.08;89.60;99855.63;5036947;28;20456;-61
2021/11/03 04:06:19;;;;;;;101.35;75.05;;;;;;;4.12;89.40;99848.16;5036610;28;20075;-61
2021/11/03 04:08:44;;;;;;;51.63;41.35;;;;;;;4.13;89.73;99849.78;5036777;28;20370;-62
2021/11/03 04:11:10;;;;;;;35.20;29.08;;;;;;;4.12;89.51;99853.72;5036852;28;20018;-61
2021/11/03 04:13:36;;;;;;;40.08;34.88;;;;;;;4.12;89.76;99850.94;5036485;28;20417;-59
2021/11/03 04:16:02;;;;;;;17.23;14.27;;;;;;;4.13;89.67;99852.56;5036816;28;20078;-61
2021/11/03 04:18:28;;;;;;;12.73;9.95;;;;;;;4.16;89.99;99840.69;5036699;28;20029;-61
2021/11/03 04:20:54;;;;;;;22.42;20.23;;;;;;;4.20;89.55;99833.19;5036253;28;20436;-61
2021/11/03 04:23:19;;;;;;;16.02;13.30;;;;;;;4.18;89.64;99841.91;5036686;28;20029;-61
2021/11/03 04:25:47;;;;;;;18.80;12.85;;;;;;;4.17;89.75;99839.50;5036452;28;20029;-61
2021/11/03 04:28:13;;;;;;;33.67;25.88;;;;;;;4.15;90.04;99834.31;5035780;28;20147;-61
2021/11/03 04:30:39;;;;;;;32.75;23.17;;;;;;;4.14;89.94;99837.47;5036254;28;20392;-62
2021/11/03 04:33:05;;;;;;;26.98;21.40;;;;;;;4.13;90.54;99849.78;5036600;28;20029;-60
2021/11/03 04:35:32;;;;;;;18.67;11.90;;;;;;;4.11;90.58;99849.31;5018898;28;20294;-60
2021/11/03 04:37:58;;;;;;;14.77;10.32;;;;;;;4.07;91.11;99834.56;5036354;28;20041;-61
2021/11/03 04:40:25;;;;;;;16.73;10.15;;;;;;;4.06;91.34;99833.75;5036411;28;20029;-61
2021/11/03 04:42:51;;;;;;;15.02;9.68;;;;;;;4.06;90.81;99833.75;5035889;28;20026;-61
2021/11/03 04:45:18;;;;;;;15.35;9.20;;;;;;;4.04;90.83;99831.34;5036089;28;20037;-61
2021/11/03 04:47:43;;;;;;;12.10;9.02;;;;;;;4.03;90.67;99834.50;5035951;28;20102;-60
2021/11/03 04:50:14;;;;;;;14.93;10.82;;;;;;;4.05;91.25;99848.84;5035191;28;20093;-62
2021/11/03 04:52:39;;;;;;;11.23;9.18;;;;;;;4.06;91.20;99861.56;5034855;28;20017;-60
2021/11/03 04:55:06;;;;;;;11.23;8.80;;;;;;;4.08;91.05;99858.41;5035962;28;20421;-59
2021/11/03 04:57:31;;;;;;;11.68;9.05;;;;;;;4.11;90.85;99858.50;5035781;28;20100;-61
2021/11/03 05:00:01;;;;;;;13.02;8.63;;;;;;;4.12;90.73;99862.06;5035645;28;20104;-60
2021/11/03 05:02:27;;;;;;;10.18;8.82;;;;;;;4.10;90.28;99856.06;5014766;28;20083;-61
2021/11/03 05:04:53;;;;;;;16.70;11.13;;;;;;;4.11;90.90;99854.88;5028252;28;20508;-60
2021/11/03 05:07:18;;;;;;;11.77;9.05;;;;;;;4.09;90.44;99855.25;5035368;28;20020;-60
2021/11/03 05:09:43;;;;;;;13.07;9.40;;;;;;;4.08;90.32;99852.84;5035770;28;20033;-61
2021/11/03 05:12:09;;;;;;;33.70;19.80;;;;;;;4.03;90.16;99854.75;5035627;28;20020;-60
2021/11/03 05:14:35;;;;;;;105.70;53.75;;;;;;;4.03;90.35;99862.31;5035377;28;20024;-60
2021/11/03 05:17:01;;;;;;;82.70;42.55;;;;;;;4.00;91.05;99863.06;5035333;28;20026;-59
2021/11/03 05:19:29;;;;;;;40.75;24.55;;;;;;;3.98;90.83;99859.84;5035483;28;20075;-59
2021/11/03 05:21:56;;;;;;;37.72;23.35;;;;;;;3.95;91.01;99855.81;5035745;28;20286;-60
2021/11/03 05:24:22;;;;;;;32.85;19.17;;;;;;;3.92;90.81;99859.34;5031874;28;20021;-60
2021/11/03 05:26:49;;;;;;;23.55;14.52;;;;;;;3.91;90.90;99870.84;5035491;28;20364;-59
2021/11/03 05:29:15;;;;;;;24.23;15.07;;;;;;;3.89;90.73;99871.22;5035364;28;20104;-60
2021/11/03 05:31:41;;;;;;;26.50;14.93;;;;;;;3.88;91.17;99871.59;5035431;28;20120;-60
2021/11/03 05:34:06;;;;;;;21.40;13.90;;;;;;;3.92;91.53;99872.44;5035409;28;20029;-59
2021/11/03 05:36:32;;;;;;;21.92;13.70;;;;;;;3.97;91.43;99874.91;5035294;28;20121;-60
2021/11/03 05:39:06;;;;;;;22.52;13.30;;;;;;;3.98;91.25;99874.53;5035013;28;20032;-59
2021/11/03 05:41:37;;;;;;;24.25;15.43;;;;;;;3.95;90.92;99878.06;5035120;28;20026;-60
2021/11/03 05:44:03;;;;;;;22.05;12.80;;;;;;;3.88;90.42;99877.97;5032123;28;20029;-60
2021/11/03 05:46:35;;;;;;;20.13;12.98;;;;;;;3.81;90.36;99877.00;5028296;28;20021;-60
2021/11/03 05:49:05;;;;;;;13.48;10.68;;;;;;;3.79;90.34;99866.25;5034843;28;20053;-58
2021/11/03 05:51:31;;;;;;;16.85;12.73;;;;;;;3.79;90.79;99855.13;5034650;28;20018;-60
2021/11/03 05:53:56;;;;;;;15.07;12.07;;;;;;;3.84;91.06;99860.41;5034790;28;20030;-60
2021/11/03 05:56:21;;;;;;;16.17;12.00;;;;;;;3.85;90.50;99858.44;5023875;28;20038;-60
2021/11/03 05:58:47;;;;;;;15.15;9.80;;;;;;;3.92;90.82;99851.00;5018790;28;20049;-60
2021/11/03 06:01:12;;;;;;;11.73;9.18;;;;;;;4.00;91.13;99849.16;5026356;28;20025;-59
2021/11/03 06:03:37;;;;;;;13.13;8.60;;;;;;;4.04;90.79;99870.28;5032179;28;20052;-61
2021/11/03 06:06:03;;;;;;;12.32;8.57;;;;;;;4.09;91.18;99876.69;5033749;28;20052;-60
2021/11/03 06:08:29;;;;;;;17.13;11.73;;;;;;;4.11;90.69;99888.25;5033900;28;20096;-59
2021/11/03 06:10:56;;;;;;;19.05;12.32;;;;;;;4.19;91.71;99893.59;5033487;28;20025;-62
2021/11/03 06:13:22;;;;;;;17.27;10.77;;;;;;;4.32;91.83;99891.41;5033817;28;20109;-60
2021/11/03 06:15:48;;;;;;;17.65;13.35;;;;;;;4.40;92.15;99886.78;5034575;28;20108;-60
2021/11/03 06:18:14;;;;;;;21.52;14.85;;;;;;;4.51;92.55;99894.09;5035134;28;20053;-60
2021/11/03 06:20:39;;;;;;;19.40;14.52;;;;;;;4.55;92.20;99889.38;5034746;28;20021;-61
2021/11/03 06:23:05;;;;;;;16.48;12.82;;;;;;;4.55;92.22;99891.38;5034771;28;20413;-57
2021/11/03 06:25:35;;;;;;;30.00;17.08;;;;;;;4.60;92.67;99897.41;5033896;28;20298;-61
2021/11/03 06:28:01;;;;;;;20.40;13.80;;;;;;;4.64;92.36;99898.25;5033339;28;20026;-60
2021/11/03 06:30:31;;;;;;;18.15;12.55;;;;;;;4.74;92.43;99901.59;5033141;28;20526;-61
2021/11/03 06:32:57;;;;;;;23.08;13.02;;;;;;;4.77;92.52;99900.84;5033969;28;20026;-61
2021/11/03 06:35:24;;;;;;;16.67;11.60;;;;;;;4.78;92.58;99896.88;5034276;28;20083;-60
2021/11/03 06:37:50;;;;;;;14.80;10.02;;;;;;;4.80;92.41;99900.09;5034040;28;20029;-60
2021/11/03 06:40:19;;;;;;;13.52;9.07;;;;;;;4.85;92.96;99896.97;5035027;28;20026;-57
2021/11/03 06:42:44;;;;;;;14.38;10.68;;;;;;;4.89;92.90;99881.91;5034460;28;20021;-60
2021/11/03 06:45:11;;;;;;;14.07;10.75;;;;;;;4.99;92.58;99886.06;5034331;28;20017;-60
2021/11/03 06:47:37;;;;;;;13.13;9.68;;;;;;;5.04;92.25;99882.94;5034661;28;20171;-61
2021/11/03 06:50:05;;;;;;;13.05;9.18;;;;;;;5.08;91.50;99889.34;5034844;28;20103;-60
2021/11/03 06:52:31;;;;;;;11.27;8.95;;;;;;;5.10;91.44;99897.31;5037863;28;20116;-60
2021/11/03 06:54:57;;;;;;;9.57;7.57;;;;;;;5.09;91.77;99895.72;5038346;28;20021;-60
2021/11/03 06:57:22;;;;;;;11.45;8.55;;;;;;;5.12;92.03;99903.31;5038538;28;20031;-60
2021/11/03 06:59:48;;;;;;;11.32;7.82;;;;;;;5.23;92.68;99905.09;5037827;28;20324;-56
2021/11/03 07:02:17;;;;;;;14.90;8.95;;;;;;;5.46;93.55;99904.13;5038043;28;20613;-60
2021/11/03 07:04:43;;;;;;;13.20;9.10;;;;;;;5.69;94.35;99921.53;5038086;28;20116;-61
2021/11/03 07:07:09;;;;;;;10.15;8.35;;;;;;;6.02;94.82;99919.91;5037972;28;20097;-60
2021/11/03 07:09:34;;;;;;;12.45;9.07;;;;;;;6.34;94.67;99925.81;5038002;28;20035;-60
2021/11/03 07:12:00;;;;;;;13.70;9.10;;;;;;;6.66;95.01;99931.66;5037880;28;20029;-60
2021/11/03 07:14:25;;;;;;;14.63;8.52;;;;;;;7.03;94.68;99918.34;5037842;28;20025;-60
2021/11/03 07:16:52;;;;;;;9.40;8.40;;;;;;;7.26;93.37;99923.66;5037581;28;20029;-58
2021/11/03 07:19:17;;;;;;;10.73;8.68;;;;;;;7.43;91.68;99924.97;5037942;28;20032;-60
2021/11/03 07:21:44;;;;;;;11.10;7.90;;;;;;;7.70;91.22;99931.84;5038019;28;20025;-60
2021/11/03 07:24:12;;;;;;;10.02;8.10;;;;;;;7.98;90.79;99928.34;5037472;28;20435;-60
2021/11/03 07:26:38;;;;;;;10.38;8.48;;;;;;;8.23;88.62;99927.59;5037681;28;20021;-60
2021/11/03 07:29:04;;;;;;;9.27;8.00;;;;;;;8.46;88.75;99918.81;5037676;28;20025;-60
2021/11/03 07:31:29;;;;;;;12.65;8.02;;;;;;;8.63;86.66;99913.22;5037387;28;20060;-60
2021/11/03 07:33:55;;;;;;;9.60;6.85;;;;;;;8.89;86.37;99919.59;5037596;28;20128;-56
2021/11/03 07:36:20;;;;;;;11.00;7.45;;;;;;;9.14;85.76;99930.75;5037475;28;20321;-61
2021/11/03 07:38:47;;;;;;;8.73;6.78;;;;;;;9.30;83.59;99922.69;5037406;28;20029;-60
2021/11/03 07:41:13;;;;;;;8.00;6.85;;;;;;;9.41;83.87;99928.28;5037389;28;20404;-60
2021/11/03 07:43:42;;;;;;;8.90;6.32;;;;;;;9.38;81.74;99927.09;5037121;28;20096;-61
2021/11/03 07:46:08;;;;;;;8.57;7.22;;;;;;;9.38;82.18;99929.91;5037203;28;20504;-60
2021/11/03 07:48:34;;;;;;;9.18;6.55;;;;;;;9.48;82.96;99923.44;5037029;28;20107;-61
2021/11/03 07:51:05;;;;;;;9.45;6.50;;;;;;;9.51;81.65;99914.19;5037449;28;20321;-60
2021/11/03 07:53:30;;;;;;;13.95;7.72;;;;;;;9.62;82.11;99907.75;5036864;28;20049;-60
2021/11/03 07:56:01;;;;;;;12.95;6.30;;;;;;;9.74;83.24;99908.09;5037301;28;20429;-60
2021/11/03 07:58:29;;;;;;;10.73;6.25;;;;;;;9.80;82.39;99911.25;5037209;28;20071;-60
2021/11/03 08:00:55;;;;;;;9.75;6.47;;;;;;;9.92;82.31;99905.19;5037026;28;20021;-59
2021/11/03 08:03:22;;;;;;;6.70;5.50;;;;;;;9.99;81.64;99899.53;5036817;28;20436;-60
2021/11/03 08:05:50;;;;;;;7.78;5.78;;;;;;;10.02;81.16;99895.91;5036985;28;20428;-60
2021/11/03 08:08:17;;;;;;;9.73;5.65;;;;;;;10.09;80.97;99898.66;5036906;28;20026;-61
2021/11/03 08:10:44;;;;;;;9.23;5.68;;;;;;;10.14;80.25;99900.25;5036371;28;20325;-60
2021/11/03 08:13:14;;;;;;;9.13;5.45;;;;;;;10.14;79.80;99898.25;5037205;28;20304;-60
2021/11/03 08:15:41;;;;;;;7.03;5.18;;;;;;;10.17;80.14;99897.41;5036419;28;20045;-60
2021/11/03 08:18:07;;;;;;;8.60;5.22;;;;;;;10.21;78.67;99897.41;5037196;28;20021;-60
2021/11/03 08:20:35;;;;;;;7.68;5.18;;;;;;;10.24;78.18;99907.81;5036507;28;20037;-60
2021/11/03 08:23:00;;;;;;;5.25;4.28;;;;;;;10.29;77.58;99892.53;5036574;28;20021;-60
2021/11/03 08:25:26;;;;;;;5.03;4.38;;;;;;;10.31;77.97;99906.97;5036293;28;20021;-60
2021/11/03 08:27:51;;;;;;;10.32;5.07;;;;;;;10.36;77.16;99909.31;5036579;28;20025;-61
2021/11/03 08:30:17;;;;;;;6.35;5.22;;;;;;;10.32;76.21;99902.94;5036611;28;20052;-60
2021/11/03 08:33:01;;;;;;;8.38;5.40;;;;;;;10.27;76.95;99907.00;5036180;28;20028;-61
2021/11/03 08:35:27;;;;;;;8.13;6.32;;;;;;;10.26;76.85;99893.38;5036494;28;20072;-61
2021/11/03 08:37:56;;;;;;;7.18;5.63;;;;;;;10.31;76.87;99902.13;5036038;28;20341;-60
2021/11/03 08:40:23;;;;;;;12.15;6.13;;;;;;;10.41;77.10;99900.47;5036533;28;20109;-61
2021/11/03 08:42:50;;;;;;;10.63;7.18;;;;;;;10.51;76.93;99899.59;5036051;28;20408;-60
2021/11/03 08:45:16;;;;;;;9.15;6.95;;;;;;;10.64;77.10;99891.44;5036142;28;20029;-60
2021/11/03 08:47:43;;;;;;;9.90;7.22;;;;;;;10.67;75.74;99890.59;5036002;28;20128;-61
2021/11/03 08:50:12;;;;;;;9.43;6.55;;;;;;;10.71;77.14;99889.38;5036090;28;20075;-60
2021/11/03 08:52:38;;;;;;;9.90;6.45;;;;;;;10.79;76.37;99887.28;5035731;28;20029;-61
2021/11/03 08:55:04;;;;;;;9.38;7.30;;;;;;;10.94;77.11;99890.75;5036148;28;20033;-60
2021/11/03 08:57:32;;;;;;;8.40;6.63;;;;;;;11.10;76.79;99886.16;5036011;28;20030;-60
2021/11/03 08:59:58;;;;;;;9.90;6.88;;;;;;;11.19;76.67;99894.09;5035761;28;20025;-60
2021/11/03 09:02:24;;;;;;;11.10;7.65;;;;;;;11.23;75.50;99889.25;5036148;28;20451;-60
2021/11/03 09:04:51;;;;;;;10.10;7.57;;;;;;;11.16;74.23;99883.69;5035967;28;20021;-61
2021/11/03 09:07:17;;;;;;;9.88;7.50;;;;;;;11.16;74.76;99892.13;5035643;28;20112;-61
2021/11/03 09:09:44;;;;;;;10.60;8.30;;;;;;;11.16;75.07;99892.13;5035614;28;20104;-60
2021/11/03 09:12:09;;;;;;;12.63;9.18;;;;;;;11.17;75.29;99895.72;5035689;28;20014;-60
2021/11/03 09:14:35;;;;;;;11.25;8.77;;;;;;;11.19;75.88;99894.09;5035236;28;20017;-60
2021/11/03 09:17:01;;;;;;;14.43;9.75;;;;;;;11.28;76.17;99899.22;5035543;28;20112;-61
2021/11/03 09:19:26;;;;;;;15.77;10.75;;;;;;;11.40;76.08;99888.22;5035826;28;20032;-60
2021/11/03 09:21:52;;;;;;;11.35;9.73;;;;;;;11.58;75.59;99890.81;5035577;28;20108;-60
2021/11/03 09:24:17;;;;;;;15.05;10.50;;;;;;;11.75;74.85;99888.97;5035238;28;20506;-60
2021/11/03 09:26:43;;;;;;;12.43;9.50;;;;;;;11.91;74.72;99883.56;5035582;28;20070;-60
2021/11/03 09:29:10;;;;;;;15.95;11.63;;;;;;;12.05;74.39;99891.00;5035573;28;20028;-60
2021/11/03 09:31:37;;;;;;;12.68;9.27;;;;;;;12.15;73.07;99873.16;5035651;28;20041;-60
2021/11/03 09:34:03;;;;;;;13.43;9.98;;;;;;;12.25;73.46;99888.28;5035403;28;20082;-60
2021/11/03 09:36:29;;;;;;;17.20;11.10;;;;;;;12.33;72.22;99872.88;5035475;28;20140;-60
2021/11/03 09:38:55;;;;;;;14.70;10.55;;;;;;;12.35;70.71;99873.25;5035077;28;20022;-60
2021/11/03 09:41:26;;;;;;;15.52;11.48;;;;;;;12.40;71.96;99875.56;5035305;28;20295;-60
2021/11/03 09:44:09;;;;;;;11.23;9.52;;;;;;;12.41;71.38;99879.19;5035309;28;20409;-60
2021/11/03 09:46:43;;;;;;;12.15;9.60;;;;;;;12.35;71.17;99879.69;5035088;28;20029;-60
2021/11/03 09:49:09;;;;;;;18.77;11.00;;;;;;;12.31;70.34;99880.94;5035307;28;20176;-61
2021/11/03 09:51:35;;;;;;;12.20;10.25;;;;;;;12.27;70.52;99883.00;5034895;28;20056;-60
2021/11/03 09:54:05;;;;;;;14.63;10.80;;;;;;;12.24;71.72;99879.03;5035203;28;20498;-61
2021/11/03 09:56:45;;;;;;;12.60;8.75;;;;;;;12.21;71.79;99870.63;5035040;28;20037;-60
2021/11/03 09:59:30;;;;;;;14.43;9.07;;;;;;;12.19;72.21;99882.34;5035217;28;20112;-60
2021/11/03 10:02:11;;;;;;;13.48;9.82;;;;;;;12.13;72.05;99883.25;5034339;28;20066;-60
2021/11/03 10:04:51;;;;;;;15.32;10.18;;;;;;;12.06;72.35;99887.78;5035177;28;20033;-56
2021/11/03 10:07:41;;;;;;;14.10;10.43;;;;;;;12.01;72.21;99885.41;5034721;28;20105;-61
2021/11/03 10:10:19;;;;;;;15.77;11.63;;;;;;;11.94;72.42;99877.06;5035144;28;20377;-60
2021/11/03 10:12:45;;;;;;;13.88;10.75;;;;;;;11.88;72.57;99867.50;5035109;28;20737;-60
2021/11/03 10:15:11;;;;;;;14.57;11.75;;;;;;;11.84;73.28;99880.84;5035289;28;20022;-60
2021/11/03 10:17:36;;;;;;;15.80;11.15;;;;;;;11.79;73.75;99875.69;5035266;28;20216;-61
2021/11/03 10:20:18;;;;;;;15.35;11.90;;;;;;;11.77;74.05;99880.91;5035043;28;20320;-60
2021/11/03 10:22:43;;;;;;;15.68;11.32;;;;;;;11.73;74.59;99882.97;5034698;28;20021;-61
2021/11/03 10:25:21;;;;;;;19.10;13.27;;;;;;;11.73;75.33;99869.69;5034972;28;20037;-60
2021/11/03 10:27:57;;;;;;;15.75;12.35;;;;;;;11.76;76.25;99865.22;5038901;28;20099;-61
2021/11/03 10:30:31;;;;;;;18.30;12.73;;;;;;;11.77;75.77;99869.63;5038703;28;20021;-60
2021/11/03 10:33:07;;;;;;;20.00;12.73;;;;;;;11.77;75.92;99866.81;5038978;28;20025;-60
2021/11/03 10:35:40;;;;;;;21.98;15.07;;;;;;;11.76;75.86;99868.03;5038472;28;20028;-58
2021/11/03 10:38:19;;;;;;;20.13;13.52;;;;;;;11.76;76.12;99859.59;5038868;28;20025;-60
2021/11/03 10:40:54;;;;;;;18.30;13.43;;;;;;;11.78;76.57;99851.56;5038400;28;20302;-60
2021/11/03 10:43:40;;;;;;;38.20;21.73;;;;;;;11.82;76.51;99838.25;5020983;28;20017;-60
2021/11/03 10:46:16;;;;;;;22.73;15.80;;;;;;;11.85;76.93;99833.78;5038736;28;20032;-60
2021/11/03 10:48:43;;;;;;;20.30;13.75;;;;;;;11.89;76.52;99824.06;5038395;28;20073;-60
2021/11/03 10:51:18;;;;;;;19.83;13.57;;;;;;;11.96;76.80;99811.88;5038165;28;20421;-60
2021/11/03 10:53:54;;;;;;;21.70;15.80;;;;;;;12.02;77.25;99810.94;5038008;28;20053;-60
2021/11/03 10:56:28;;;;;;;20.70;15.13;;;;;;;12.12;77.45;99805.59;5038497;28;20025;-61
2021/11/03 10:59:30;;;;;;;22.13;15.43;;;;;;;12.30;77.77;99797.63;5038162;28;20033;-60
2021/11/03 11:02:12;;;;;;;19.00;15.20;;;;;;;12.47;77.98;99796.53;5037928;28;20110;-60
2021/11/03 11:04:39;;;;;;;21.38;16.35;;;;;;;12.64;76.16;99786.97;5037955;28;20393;-61
2021/11/03 11:07:29;;;;;;;21.40;16.52;;;;;;;12.76;75.96;99796.78;5038083;28;20076;-60
2021/11/03 11:10:14;;;;;;;19.77;16.00;;;;;;;12.82;75.41;99789.41;5038285;28;20025;-60
2021/11/03 11:12:42;;;;;;;23.70;16.88;;;;;;;12.84;75.52;99786.16;5025702;28;20105;-60
2021/11/03 11:15:14;;;;;;;23.92;16.25;;;;;;;12.87;75.57;99774.00;5020776;28;20037;-61
2021/11/03 11:17:49;;;;;;;23.40;17.00;;;;;;;12.99;76.34;99781.84;5037964;28;20078;-60
2021/11/03 11:20:27;;;;;;;24.52;17.45;;;;;;;13.14;76.26;99788.75;5037586;28;20026;-60
2021/11/03 11:23:08;;;;;;;24.45;18.77;;;;;;;13.30;74.11;99782.44;5038064;28;20120;-60
2021/11/03 11:25:52;;;;;;;23.45;17.02;;;;;;;13.41;74.93;99782.97;5036624;28;20021;-60
2021/11/03 11:28:26;;;;;;;23.98;18.25;;;;;;;13.50;74.53;99782.41;5037652;28;20045;-60
2021/11/03 11:31:04;;;;;;;24.70;18.45;;;;;;;13.63;74.65;99772.00;5037574;28;20021;-60
2021/11/03 11:33:36;;;;;;;24.33;17.95;;;;;;;13.75;74.34;99779.81;5037449;28;20466;-61